Patuxent River, Maryland
Current Conditions -  °F | °C
As of 4:52 PM on Friday 31 Oct 2014 (Local Time) from KNHK Reporting Station
Few Clouds Few Clouds  
Wind Chill: 55°   Ceiling: Unl
Heat Index: 55°   Visibility: 10mi
Dew Point: 33°   Wind: 10mph
Humidity: 43%   Direction: 360°N
Pressure: 29.86"   Gusts: NA
Location:  38.28°N, 76.4°W
Report Text: KNHK 312052Z 36009KT 10SM FEW050 FEW200 13/01 A2986 RMK AO2 SLP112 T01280006 55010 $
Loading
Personal Weather Stations






























Interactive Weather Map
Tropical Storm Tracking
New forecast layout! Learn more

10-Day Weather Forecast

Advertisements
Track Severe Weather on mobile